sensor_id;sensor_type;location;lat;lon;timestamp;temperature;humidity
8886;DHT22;4479;51.162;13.906;2023-08-21T00:14:30;26.20;99.90
8886;DHT22;4479;51.162;13.906;2023-08-21T00:44:38;26.10;99.90
8886;DHT22;4479;51.162;13.906;2023-08-21T00:54:43;26.00;99.90
8886;DHT22;4479;51.162;13.906;2023-08-21T01:04:46;25.90;99.90
8886;DHT22;4479;51.162;13.906;2023-08-21T01:15:02;25.80;99.90
8886;DHT22;4479;51.162;13.906;2023-08-21T01:25:07;25.70;99.90
8886;DHT22;4479;51.162;13.906;2023-08-21T01:35:12;25.70;99.90
8886;DHT22;4479;51.162;13.906;2023-08-21T01:45:16;25.60;99.90
8886;DHT22;4479;51.162;13.906;2023-08-21T02:07:42;25.50;99.90
8886;DHT22;4479;51.162;13.906;2023-08-21T03:47:17;24.20;99.90
8886;DHT22;4479;51.162;13.906;2023-08-21T04:47:50;24.00;99.90
8886;DHT22;4479;51.162;13.906;2023-08-21T05:07:59;24.60;99.90
8886;DHT22;4479;51.162;13.906;2023-08-21T05:38:10;26.00;99.90
8886;DHT22;4479;51.162;13.906;2023-08-21T07:18:52;30.30;99.90
8886;DHT22;4479;51.162;13.906;2023-08-21T07:38:58;30.20;99.90
8886;DHT22;4479;51.162;13.906;2023-08-21T07:59:09;29.90;99.90
8886;DHT22;4479;51.162;13.906;2023-08-21T08:19:15;30.00;99.90
8886;DHT22;4479;51.162;13.906;2023-08-21T08:39:21;30.10;99.90
8886;DHT22;4479;51.162;13.906;2023-08-21T08:59:29;30.10;99.90
8886;DHT22;4479;51.162;13.906;2023-08-21T09:09:39;30.20;99.90
8886;DHT22;4479;51.162;13.906;2023-08-21T09:19:44;30.50;99.90
8886;DHT22;4479;51.162;13.906;2023-08-21T09:39:50;31.30;99.90
8886;DHT22;4479;51.162;13.906;2023-08-21T09:49:53;31.50;98.80
8886;DHT22;4479;51.162;13.906;2023-08-21T10:00:11;31.50;98.60
8886;DHT22;4479;51.162;13.906;2023-08-21T10:20:22;31.60;97.20
8886;DHT22;4479;51.162;13.906;2023-08-21T10:30:27;31.70;97.20
8886;DHT22;4479;51.162;13.906;2023-08-21T10:40:34;32.10;95.80
8886;DHT22;4479;51.162;13.906;2023-08-21T11:00:40;32.10;92.10
8886;DHT22;4479;51.162;13.906;2023-08-21T11:20:47;30.70;92.50
8886;DHT22;4479;51.162;13.906;2023-08-21T11:40:56;32.10;93.80
8886;DHT22;4479;51.162;13.906;2023-08-21T11:51:01;32.50;94.80
8886;DHT22;4479;51.162;13.906;2023-08-21T12:01:05;32.70;93.70
8886;DHT22;4479;51.162;13.906;2023-08-21T12:21:12;33.10;90.70
8886;DHT22;4479;51.162;13.906;2023-08-21T12:41:18;32.90;91.00
8886;DHT22;4479;51.162;13.906;2023-08-21T13:01:25;32.70;89.70
8886;DHT22;4479;51.162;13.906;2023-08-21T13:21:32;32.70;90.00
8886;DHT22;4479;51.162;13.906;2023-08-21T13:41:39;32.90;89.20
8886;DHT22;4479;51.162;13.906;2023-08-21T14:01:45;36.80;87.50
8886;DHT22;4479;51.162;13.906;2023-08-21T14:21:51;32.10;83.60
8886;DHT22;4479;51.162;13.906;2023-08-21T14:41:59;31.70;85.20
8886;DHT22;4479;51.162;13.906;2023-08-21T15:02:06;31.70;84.70
8886;DHT22;4479;51.162;13.906;2023-08-21T15:12:08;31.70;84.80
8886;DHT22;4479;51.162;13.906;2023-08-21T15:22:12;31.50;83.40
8886;DHT22;4479;51.162;13.906;2023-08-21T15:42:18;31.00;81.80
8886;DHT22;4479;51.162;13.906;2023-08-21T16:02:24;30.80;82.00
8886;DHT22;4479;51.162;13.906;2023-08-21T16:22:30;30.40;80.30
8886;DHT22;4479;51.162;13.906;2023-08-21T16:42:36;30.30;80.40
8886;DHT22;4479;51.162;13.906;2023-08-21T17:02:42;30.00;79.50
8886;DHT22;4479;51.162;13.906;2023-08-21T17:22:48;29.80;80.50
8886;DHT22;4479;51.162;13.906;2023-08-21T17:42:55;29.30;81.00
8886;DHT22;4479;51.162;13.906;2023-08-21T18:03:05;28.80;81.20
8886;DHT22;4479;51.162;13.906;2023-08-21T18:23:10;28.40;83.90
8886;DHT22;4479;51.162;13.906;2023-08-21T18:43:18;28.00;84.20
8886;DHT22;4479;51.162;13.906;2023-08-21T19:03:24;27.70;85.90
8886;DHT22;4479;51.162;13.906;2023-08-21T22:04:30;24.50;92.10
8886;DHT22;4479;51.162;13.906;2023-08-21T22:24:36;24.30;92.80
8886;DHT22;4479;51.162;13.906;2023-08-21T22:44:42;23.90;93.50
8886;DHT22;4479;51.162;13.906;2023-08-21T23:04:48;23.80;94.00
8886;DHT22;4479;51.162;13.906;2023-08-21T23:24:54;23.40;94.30
8886;DHT22;4479;51.162;13.906;2023-08-21T23:45:01;23.40;95.10
8886;DHT22;4479;51.162;13.906;2023-08-21T23:55:05;23.20;95.40
